Time;durP1;ratioP1;P1;durP2;ratioP2;P2;SDS_P1;SDS_P2;PMS_P1;PMS_P2;Temp;Humidity;BMP_temperature;BMP_pressure;BME280_temperature;BME280_humidity;BME280_pressure;Samples;Min_cycle;Max_cycle;Signal;HPM_P1;HPM_P2
2023/04/02 00:01:52;;;;;;;0.30;0.30;;;;;;;10.22;70.67;98267.06;4440143;32;34365;-78
2023/04/02 00:04:22;;;;;;;0.50;0.50;;;;;;;10.26;70.56;98270.41;4440202;32;33769;-78
2023/04/02 00:06:53;;;;;;;0.32;0.32;;;;;;;10.09;71.63;98270.00;4440044;32;35071;-78
2023/04/02 00:09:30;;;;;;;0.40;0.40;;;;;;;10.15;71.29;98272.47;4439048;32;34539;-78
2023/04/02 00:12:14;;;;;;;0.40;0.40;;;;;;;10.01;71.90;98280.63;4426329;32;32725;-78
2023/04/02 00:14:52;;;;;;;0.35;0.35;;;;;;;9.78;72.66;98278.59;4439048;32;33905;-78
2023/04/02 00:17:23;;;;;;;0.30;0.30;;;;;;;10.33;70.32;98273.75;4440068;32;35824;-78
2023/04/02 00:19:59;;;;;;;0.30;0.30;;;;;;;9.84;72.46;98275.84;4439044;32;34497;-78
2023/04/02 00:22:30;;;;;;;0.30;0.30;;;;;;;9.84;72.71;98271.47;4438996;32;34334;-79
2023/04/02 00:25:01;;;;;;;0.30;0.30;;;;;;;9.86;72.46;98284.44;4438995;32;33809;-78
2023/04/02 00:27:30;;;;;;;0.30;0.30;;;;;;;9.61;73.59;98281.59;4426130;32;33940;-78
2023/04/02 00:29:59;;;;;;;0.77;0.75;;;;;;;9.82;72.59;98281.06;4426291;32;34355;-78
2023/04/02 00:32:30;;;;;;;0.75;0.75;;;;;;;9.86;72.48;98281.84;4438852;32;34294;-79
2023/04/02 00:34:58;;;;;;;0.40;0.40;;;;;;;9.78;72.98;98283.81;4440240;32;34063;-78
2023/04/02 00:37:28;;;;;;;0.40;0.40;;;;;;;9.33;74.79;98286.59;4439073;32;35876;-78
2023/04/02 00:40:08;;;;;;;0.30;0.30;;;;;;;9.42;74.56;98286.37;4438818;32;34640;-78
2023/04/02 00:42:39;;;;;;;0.45;0.45;;;;;;;9.51;74.12;98286.13;4439036;32;34188;-78
2023/04/02 00:45:37;;;;;;;0.40;0.40;;;;;;;9.78;72.77;98289.00;4439942;32;33015;-78
2023/04/02 00:48:31;;;;;;;0.35;0.35;;;;;;;9.68;73.72;98289.19;4422463;32;34845;-78
2023/04/02 00:51:23;;;;;;;0.30;0.30;;;;;;;9.55;74.24;98293.00;4411118;32;34287;-77
2023/04/02 00:53:54;;;;;;;0.30;0.30;;;;;;;9.64;74.37;98297.97;4438536;32;34234;-77
2023/04/02 00:56:28;;;;;;;0.43;0.43;;;;;;;9.56;74.88;98292.09;4438734;32;33952;-78
2023/04/02 00:58:57;;;;;;;0.30;0.30;;;;;;;9.46;75.91;98282.81;4438707;32;35051;-78
2023/04/02 01:01:28;;;;;;;0.52;0.52;;;;;;;9.31;77.05;98286.63;4438592;32;34454;-79
2023/04/02 01:04:00;;;;;;;0.40;0.40;;;;;;;9.04;78.65;98275.09;4438778;32;34155;-78
2023/04/02 01:06:33;;;;;;;0.45;0.45;;;;;;;9.04;79.09;98275.09;4439775;32;34688;-82
2023/04/02 01:09:22;;;;;;;0.30;0.30;;;;;;;9.16;78.90;98276.56;4438588;32;35896;-78
2023/04/02 01:12:02;;;;;;;0.30;0.30;;;;;;;9.59;76.88;98281.62;4439751;32;34512;-78
2023/04/02 01:14:31;;;;;;;0.40;0.40;;;;;;;9.46;77.04;98277.63;4439821;32;33628;-81
2023/04/02 01:17:34;;;;;;;0.65;0.65;;;;;;;9.70;76.09;98275.31;4439719;32;33815;-79
2023/04/02 01:20:06;;;;;;;0.50;0.50;;;;;;;9.68;76.06;98277.97;4439616;32;35113;-78
2023/04/02 01:22:46;;;;;;;0.43;0.43;;;;;;;9.59;76.70;98283.38;4439662;32;34379;-81
2023/04/02 01:25:25;;;;;;;0.37;0.37;;;;;;;9.58;76.86;98290.34;4439673;32;34301;-82
2023/04/02 01:28:04;;;;;;;0.30;0.30;;;;;;;9.72;76.23;98283.94;4439538;32;33860;-78
2023/04/02 01:30:34;;;;;;;0.68;0.68;;;;;;;9.47;76.73;98287.13;4439569;32;35705;-79
2023/04/02 01:33:02;;;;;;;0.40;0.40;;;;;;;9.18;78.59;98285.19;4439593;32;34515;-79
2023/04/02 01:35:35;;;;;;;0.40;0.40;;;;;;;9.33;78.33;98278.78;4438310;32;34218;-78
2023/04/02 01:38:32;;;;;;;0.68;0.68;;;;;;;9.57;76.77;98283.41;4439525;32;33685;-81
2023/04/02 01:41:25;;;;;;;0.30;0.30;;;;;;;9.53;77.04;98284.38;4439352;32;34719;-78
2023/04/02 01:44:16;;;;;;;0.35;0.35;;;;;;;9.59;77.26;98293.78;4438374;32;34445;-82
2023/04/02 01:46:47;;;;;;;0.40;0.40;;;;;;;9.28;78.57;98289.28;4438512;32;33384;-78
2023/04/02 01:49:21;;;;;;;0.40;0.40;;;;;;;9.60;77.32;98279.88;4439448;32;33887;-79
2023/04/02 01:51:57;;;;;;;0.47;0.47;;;;;;;9.61;77.21;98287.63;4438612;32;35722;-82
2023/04/02 01:54:27;;;;;;;0.30;0.30;;;;;;;9.19;78.94;98285.13;4438390;32;35104;-79
2023/04/02 01:56:58;;;;;;;0.37;0.37;;;;;;;9.21;78.27;98288.56;4439801;32;34134;-81
2023/04/02 01:59:28;;;;;;;0.30;0.30;;;;;;;9.03;79.00;98284.63;4425729;32;34341;-83
2023/04/02 02:02:01;;;;;;;0.40;0.40;;;;;;;9.20;78.64;98286.84;4426132;32;35755;-79
2023/04/02 02:04:31;;;;;;;0.40;0.40;;;;;;;9.35;78.44;98295.19;4438197;32;34476;-78
2023/04/02 02:07:00;;;;;;;0.40;0.40;;;;;;;9.26;78.46;98296.25;4438208;32;33748;-80
2023/04/02 02:09:31;;;;;;;0.32;0.32;;;;;;;9.24;77.80;98298.03;4438445;32;33985;-82
2023/04/02 02:12:01;;;;;;;0.30;0.30;;;;;;;9.22;78.44;98300.66;4438294;32;35119;-82
2023/04/02 02:14:30;;;;;;;0.80;0.80;;;;;;;9.42;78.01;98308.03;4438196;32;34459;-82
2023/04/02 02:17:01;;;;;;;0.40;0.40;;;;;;;9.63;76.50;98309.25;4439470;32;33607;-82
2023/04/02 02:19:35;;;;;;;0.90;0.85;;;;;;;9.52;76.45;98303.47;4438183;32;33710;-78
2023/04/02 02:22:29;;;;;;;0.40;0.40;;;;;;;9.40;76.85;98311.53;4438135;32;35030;-82
2023/04/02 02:25:04;;;;;;;0.37;0.37;;;;;;;9.37;77.48;98309.00;4438397;32;35116;-79
2023/04/02 02:27:38;;;;;;;0.40;0.40;;;;;;;9.37;77.65;98304.69;4425848;32;33102;-78
2023/04/02 02:30:15;;;;;;;0.60;0.60;;;;;;;9.33;77.58;98313.41;4439565;32;33935;-82
2023/04/02 02:33:20;;;;;;;0.30;0.30;;;;;;;9.13;78.96;98311.25;4438043;32;33425;-82
2023/04/02 02:36:10;;;;;;;0.40;0.40;;;;;;;8.92;79.24;98313.41;4420794;32;35847;-82
2023/04/02 02:38:50;;;;;;;0.40;0.40;;;;;;;9.52;77.03;98319.03;4438005;32;32753;-78
2023/04/02 02:41:29;;;;;;;0.30;0.30;;;;;;;9.02;79.26;98321.88;4438057;32;34683;-79
2023/04/02 02:44:05;;;;;;;0.40;0.40;;;;;;;8.75;80.25;98315.47;4439338;32;35071;-83
2023/04/02 02:46:36;;;;;;;0.88;0.88;;;;;;;8.45;82.14;98315.22;4438204;32;34464;-82
2023/04/02 02:49:06;;;;;;;0.77;0.77;;;;;;;8.63;81.56;98320.91;4438161;32;33873;-82
2023/04/02 02:52:04;;;;;;;0.30;0.30;;;;;;;8.99;79.68;98323.69;4439221;32;33937;-82
2023/04/02 02:54:35;;;;;;;0.35;0.35;;;;;;;9.26;79.00;98317.88;4417204;32;34992;-82
2023/04/02 02:57:07;;;;;;;0.40;0.40;;;;;;;9.23;78.90;98317.97;4439014;32;34478;-81
2023/04/02 02:59:36;;;;;;;0.50;0.50;;;;;;;9.26;79.12;98315.28;4438096;32;33582;-82
2023/04/02 03:02:07;;;;;;;0.40;0.40;;;;;;;9.78;76.97;98320.19;4439187;32;33917;-78
2023/04/02 03:04:37;;;;;;;0.30;0.30;;;;;;;9.78;76.98;98323.66;4437990;32;35143;-81
2023/04/02 03:07:07;;;;;;;0.40;0.40;;;;;;;10.08;75.19;98323.78;4437961;32;34431;-81
2023/04/02 03:09:51;;;;;;;0.30;0.30;;;;;;;10.11;74.80;98321.12;4438679;32;33101;-82
2023/04/02 03:12:46;;;;;;;0.40;0.40;;;;;;;9.78;75.94;98315.84;4438523;32;34729;-78
2023/04/02 03:15:24;;;;;;;0.30;0.30;;;;;;;9.85;75.62;98314.81;4437530;32;34883;-80
2023/04/02 03:18:27;;;;;;;0.30;0.30;;;;;;;9.91;74.92;98316.37;4439003;32;34324;-78
2023/04/02 03:20:57;;;;;;;0.40;0.40;;;;;;;9.84;75.22;98309.63;4438650;32;33250;-81
2023/04/02 03:23:37;;;;;;;1.45;0.50;;;;;;;9.92;75.21;98309.44;4437661;32;34642;-81
2023/04/02 03:26:14;;;;;;;0.40;0.40;;;;;;;9.60;76.37;98317.13;4438589;32;35116;-81
2023/04/02 03:28:46;;;;;;;0.30;0.30;;;;;;;9.70;75.89;98320.34;4438382;32;34545;-78
2023/04/02 03:31:25;;;;;;;0.47;0.47;;;;;;;9.62;76.32;98317.94;4437394;32;33506;-81
2023/04/02 03:34:00;;;;;;;0.40;0.40;;;;;;;9.66;76.04;98318.72;4438690;32;33902;-82
2023/04/02 03:36:45;;;;;;;0.30;0.30;;;;;;;9.73;75.79;98322.91;4438701;32;35118;-82
2023/04/02 03:39:27;;;;;;;0.40;0.40;;;;;;;9.68;75.39;98325.59;4412565;32;34576;-81
2023/04/02 03:41:59;;;;;;;0.30;0.30;;;;;;;9.77;75.08;98331.47;4437152;32;33454;-82
2023/04/02 03:44:34;;;;;;;0.35;0.35;;;;;;;9.70;76.04;98332.50;4438308;32;34014;-82
2023/04/02 03:47:38;;;;;;;1.10;1.10;;;;;;;9.61;76.08;98329.22;4424486;32;34972;-79
2023/04/02 03:50:22;;;;;;;0.45;0.45;;;;;;;9.43;77.09;98335.69;4409354;32;35184;-78
2023/04/02 03:52:51;;;;;;;0.30;0.30;;;;;;;9.72;75.43;98334.16;4438439;32;33733;-79
2023/04/02 03:55:30;;;;;;;0.40;0.40;;;;;;;9.82;74.60;98340.88;4437883;32;33885;-79
2023/04/02 03:58:14;;;;;;;0.30;0.30;;;;;;;9.71;75.15;98340.28;4437183;32;34915;-83
2023/04/02 04:00:54;;;;;;;0.40;0.40;;;;;;;9.58;75.46;98347.50;4437997;32;35314;-78
2023/04/02 04:04:02;;;;;;;0.40;0.40;;;;;;;9.20;77.68;98343.16;4438240;32;34311;-78
2023/04/02 04:06:32;;;;;;;0.30;0.30;;;;;;;9.13;78.10;98342.41;4429743;32;34781;-82
2023/04/02 04:09:11;;;;;;;0.30;0.30;;;;;;;9.33;76.79;98347.19;4436735;32;35020;-79
2023/04/02 04:11:56;;;;;;;0.30;0.30;;;;;;;9.17;78.23;98344.06;4436817;32;34432;-79
2023/04/02 04:14:28;;;;;;;0.50;0.50;;;;;;;9.28;77.86;98354.22;4436807;32;34180;-82
2023/04/02 04:17:03;;;;;;;0.45;0.45;;;;;;;9.34;76.63;98350.66;4436686;32;34788;-82
2023/04/02 04:19:44;;;;;;;0.30;0.30;;;;;;;9.01;78.36;98353.06;4437968;32;35829;-80
2023/04/02 04:22:31;;;;;;;0.30;0.30;;;;;;;8.77;79.33;98360.47;4439121;32;35150;-81
2023/04/02 04:25:06;;;;;;;0.35;0.35;;;;;;;8.81;78.99;98362.09;4439123;32;34323;-83
2023/04/02 04:27:55;;;;;;;0.30;0.30;;;;;;;8.92;78.87;98354.94;4439175;32;34562;-82
2023/04/02 04:30:33;;;;;;;0.65;0.65;;;;;;;8.91;78.96;98361.03;4439895;32;35216;-82
2023/04/02 04:33:04;;;;;;;0.40;0.40;;;;;;;8.91;78.82;98361.03;4440129;32;34510;-79
2023/04/02 04:35:37;;;;;;;0.60;0.60;;;;;;;8.77;79.66;98365.66;4438908;32;33675;-82
2023/04/02 04:38:10;;;;;;;0.30;0.30;;;;;;;8.99;79.15;98365.22;4439178;32;33818;-79
2023/04/02 04:40:51;;;;;;;0.40;0.40;;;;;;;9.20;77.96;98369.97;4440037;32;35016;-79
2023/04/02 04:43:37;;;;;;;0.40;0.40;;;;;;;8.88;80.54;98374.06;4440039;32;34453;-83
2023/04/02 04:46:13;;;;;;;0.40;0.40;;;;;;;9.27;79.29;98375.91;4440321;32;33542;-78
2023/04/02 04:48:50;;;;;;;1.12;0.75;;;;;;;9.26;79.97;98375.03;4439034;32;33810;-78
2023/04/02 04:51:25;;;;;;;0.30;0.30;;;;;;;9.54;78.92;98379.63;4426237;32;35064;-82
2023/04/02 04:53:54;;;;;;;0.30;0.30;;;;;;;9.66;78.70;98381.12;4439946;32;34398;-79
2023/04/02 04:56:25;;;;;;;0.30;0.30;;;;;;;10.05;76.82;98376.72;4438912;32;33458;-78
2023/04/02 04:59:20;;;;;;;0.30;0.30;;;;;;;10.66;73.93;98375.22;4438715;32;33972;-79
2023/04/02 05:01:54;;;;;;;0.30;0.30;;;;;;;10.95;73.92;98369.25;4438245;32;35030;-81
2023/04/02 05:04:39;;;;;;;0.40;0.40;;;;;;;11.83;70.53;98375.31;4438592;32;34416;-78
2023/04/02 05:07:27;;;;;;;0.40;0.40;;;;;;;12.96;64.88;98375.06;4426446;32;33452;-79
2023/04/02 05:10:13;;;;;;;0.30;0.30;;;;;;;13.92;61.20;98374.09;4438808;32;34837;-83
2023/04/02 05:13:27;;;;;;;0.30;0.30;;;;;;;14.69;58.14;98378.81;4438862;32;35390;-79
2023/04/02 05:16:25;;;;;;;0.30;0.30;;;;;;;14.21;57.94;98373.78;4364661;32;34542;-80
2023/04/02 05:19:01;;;;;;;0.30;0.30;;;;;;;15.58;55.04;98374.81;4432941;32;34220;-82
2023/04/02 05:21:37;;;;;;;0.30;0.30;;;;;;;16.93;50.83;98366.53;4438836;32;34075;-79
2023/04/02 05:24:31;;;;;;;0.20;0.20;;;;;;;17.33;48.32;98374.91;4438746;32;35071;-82
2023/04/02 05:27:08;;;;;;;0.30;0.30;;;;;;;16.79;49.73;98360.16;4439964;32;34392;-83
2023/04/02 05:29:40;;;;;;;0.30;0.30;;;;;;;15.20;54.02;98368.75;4438704;32;34006;-78
2023/04/02 05:32:16;;;;;;;0.30;0.30;;;;;;;14.53;55.99;98368.97;4438578;32;33831;-80
2023/04/02 05:34:48;;;;;;;0.50;0.50;;;;;;;13.71;58.73;98374.06;4438100;32;35561;-85
2023/04/02 05:37:19;;;;;;;0.30;0.30;;;;;;;13.06;61.12;98381.66;4440721;32;34337;-83
2023/04/02 05:39:54;;;;;;;0.30;0.30;;;;;;;12.69;62.31;98382.12;4438391;32;33262;-83
2023/04/02 05:42:24;;;;;;;0.30;0.30;;;;;;;12.43;63.64;98380.41;4438824;32;33116;-84
2023/04/02 05:45:30;;;;;;;0.75;0.73;;;;;;;12.74;63.25;98392.37;4438693;32;34401;-84
2023/04/02 05:48:01;;;;;;;0.28;0.28;;;;;;;13.40;62.42;98385.66;4414054;32;172035;-85
2023/04/02 05:50:36;;;;;;;0.30;0.30;;;;;;;13.55;61.91;98391.22;4439496;32;34268;-84
2023/04/02 05:53:36;;;;;;;0.40;0.40;;;;;;;13.69;60.51;98391.53;4438648;32;33767;-85
2023/04/02 05:56:06;;;;;;;0.20;0.20;;;;;;;13.48;60.97;98398.44;4439061;32;34923;-85
2023/04/02 05:58:41;;;;;;;0.22;0.22;;;;;;;13.62;60.81;98405.78;4459613;32;35098;-84
2023/04/02 06:01:30;;;;;;;0.30;0.30;;;;;;;13.36;61.76;98405.00;4456908;32;33111;-84
2023/04/02 06:04:17;;;;;;;0.30;0.30;;;;;;;13.34;61.39;98405.97;4446202;32;33969;-85
2023/04/02 06:06:51;;;;;;;;;;;;;;;13.01;62.93;98404.50;4459627;32;35697;-84
2023/04/02 06:09:26;;;;;;;0.30;0.30;;;;;;;12.56;65.49;98412.16;4467428;32;35424;-84
2023/04/02 06:12:36;;;;;;;0.40;0.40;;;;;;;13.00;64.04;98415.00;4458138;32;34118;-85
2023/04/02 06:15:09;;;;;;;0.40;0.40;;;;;;;12.42;65.14;98415.22;4458530;32;33987;-87
2023/04/02 06:17:47;;;;;;;0.50;0.50;;;;;;;12.41;66.63;98424.81;4834721;27;35839;-76
2023/04/02 06:20:18;;;;;;;1.10;0.60;;;;;;;12.97;65.40;98415.09;4432993;32;35148;-85
2023/04/02 06:23:20;;;;;;;0.22;0.22;;;;;;;12.39;67.44;98423.16;4436870;32;33499;-80
2023/04/02 06:25:58;;;;;;;0.73;0.52;;;;;;;12.50;67.64;98426.28;4436555;32;33769;-83
2023/04/02 06:28:53;;;;;;;0.47;0.40;;;;;;;12.55;67.49;98429.59;4425138;32;34639;-80
2023/04/02 06:31:40;;;;;;;0.20;0.20;;;;;;;12.41;69.31;98434.44;4445862;32;34762;-83
2023/04/02 06:34:29;;;;;;;0.30;0.30;;;;;;;13.22;66.45;98430.78;4449997;32;33616;-81
2023/04/02 06:37:23;;;;;;;0.40;0.40;;;;;;;13.45;66.13;98430.81;4433694;32;34705;-82
2023/04/02 06:39:53;;;;;;;0.30;0.30;;;;;;;13.32;65.51;98434.78;4438323;32;34171;-81
2023/04/02 06:42:28;;;;;;;0.43;0.43;;;;;;;13.00;66.77;98438.50;4437336;32;34211;-81
2023/04/02 06:44:57;;;;;;;;;;;;;;;12.65;68.01;98433.63;4442485;32;32795;-80
2023/04/02 06:47:34;;;;;;;0.30;0.30;;;;;;;13.56;64.99;98451.34;4445791;32;34100;-84
2023/04/02 06:50:15;;;;;;;0.55;0.55;;;;;;;13.15;67.71;98439.75;4449288;32;34940;-80
2023/04/02 06:52:55;;;;;;;0.30;0.30;;;;;;;13.39;65.91;98446.72;4429637;32;34546;-77
2023/04/02 06:55:32;;;;;;;0.50;0.50;;;;;;;12.89;68.58;98451.97;4444997;32;33509;-79
2023/04/02 06:58:01;;;;;;;0.30;0.30;;;;;;;14.19;64.24;98448.06;4448691;32;34873;-78
2023/04/02 07:00:36;;;;;;;0.40;0.40;;;;;;;13.89;63.47;98455.34;4440616;32;36013;-74
2023/04/02 07:03:08;;;;;;;0.40;0.40;;;;;;;14.33;63.32;98455.34;4447899;32;35185;-81
2023/04/02 07:05:36;;;;;;;0.50;0.50;;;;;;;14.50;61.83;98452.06;4446582;32;34538;-76
2023/04/02 07:08:06;;;;;;;0.50;0.50;;;;;;;14.34;64.50;98446.59;4441479;32;33234;-76
2023/04/02 07:10:35;;;;;;;0.30;0.30;;;;;;;14.77;62.41;98455.31;4426968;32;34851;-76
2023/04/02 07:13:04;;;;;;;0.35;0.25;;;;;;;14.21;62.94;98454.09;4448088;32;34456;-76
2023/04/02 07:15:33;;;;;;;0.30;0.30;;;;;;;14.41;61.43;98453.28;4447024;32;34255;-78
2023/04/02 07:18:02;;;;;;;0.20;0.20;;;;;;;14.30;63.06;98450.25;4441400;32;34806;-81
2023/04/02 07:20:36;;;;;;;0.55;0.55;;;;;;;14.48;63.28;98456.50;4450520;32;35337;-80
2023/04/02 07:23:05;;;;;;;0.40;0.40;;;;;;;15.48;59.87;98458.38;4442728;32;34452;-79
2023/04/02 07:25:35;;;;;;;0.30;0.30;;;;;;;15.66;59.41;98459.31;4444308;32;33748;-79
2023/04/02 07:28:03;;;;;;;0.22;0.22;;;;;;;15.80;60.90;98460.50;4449821;32;34058;-81
2023/04/02 07:30:32;;;;;;;0.37;0.37;;;;;;;15.70;62.39;98462.63;4439207;32;36003;-81
2023/04/02 07:33:00;;;;;;;0.40;0.40;;;;;;;15.65;60.84;98465.50;4447869;32;35167;-82
2023/04/02 07:35:28;;;;;;;0.40;0.40;;;;;;;16.87;58.29;98463.22;4444659;32;33480;-81
2023/04/02 07:37:57;;;;;;;0.30;0.30;;;;;;;17.24;56.87;98471.84;4448907;32;34733;-81
2023/04/02 07:40:25;;;;;;;0.57;0.57;;;;;;;17.27;54.39;98470.81;4440252;32;34881;-82
2023/04/02 07:42:54;;;;;;;0.20;0.20;;;;;;;16.81;55.87;98468.72;4453598;32;34228;-82
2023/04/02 07:45:22;;;;;;;0.77;0.77;;;;;;;17.00;55.56;98476.56;4451156;32;33423;-81
2023/04/02 07:47:51;;;;;;;0.47;0.47;;;;;;;16.40;56.55;98479.50;4453459;32;33861;-81
2023/04/02 07:50:19;;;;;;;0.30;0.30;;;;;;;16.78;55.00;98476.78;4453279;32;35071;-80
2023/04/02 07:52:48;;;;;;;0.25;0.25;;;;;;;16.51;57.44;98470.25;4452083;32;34760;-79
2023/04/02 07:55:16;;;;;;;0.73;0.43;;;;;;;16.07;57.09;98479.34;4452275;32;33407;-78
2023/04/02 07:57:56;;;;;;;0.50;0.50;;;;;;;15.80;58.62;98484.13;4454899;32;34677;-82
2023/04/02 08:00:26;;;;;;;0.37;0.37;;;;;;;16.15;57.18;98484.22;4454387;32;35067;-82
2023/04/02 08:02:54;;;;;;;0.30;0.30;;;;;;;16.28;57.26;98490.59;4449006;32;34438;-81
2023/04/02 08:05:23;;;;;;;0.62;0.62;;;;;;;16.44;56.56;98481.06;4429606;32;31867;-82
2023/04/02 08:07:53;;;;;;;1.58;1.15;;;;;;;15.75;58.40;98486.09;4428714;32;33670;-84
2023/04/02 08:10:22;;;;;;;0.85;0.85;;;;;;;15.34;60.95;98492.25;4439592;32;34161;-84
2023/04/02 08:12:50;;;;;;;0.32;0.32;;;;;;;15.84;57.91;98493.53;4440106;32;35173;-84
2023/04/02 08:15:18;;;;;;;0.43;0.43;;;;;;;15.87;58.90;98496.03;4426398;32;32222;-85
2023/04/02 08:17:46;;;;;;;1.02;1.02;;;;;;;15.89;56.98;98495.03;4438871;32;33871;-85
2023/04/02 08:20:16;;;;;;;0.73;0.73;;;;;;;16.06;57.85;98496.88;4438983;32;34926;-84
2023/04/02 08:22:45;;;;;;;0.90;0.65;;;;;;;15.85;57.26;98497.88;4439017;32;33646;-85
2023/04/02 08:25:14;;;;;;;0.30;0.30;;;;;;;15.62;57.78;98497.13;4438916;32;34269;-83
2023/04/02 08:27:45;;;;;;;0.28;0.28;;;;;;;16.22;58.37;98506.69;4440170;32;34646;-83
2023/04/02 08:30:15;;;;;;;0.82;0.82;;;;;;;14.48;62.03;98503.66;4440046;32;34710;-84
2023/04/02 08:32:43;;;;;;;0.60;0.60;;;;;;;15.01;61.83;98507.66;4426278;32;33769;-84
2023/04/02 08:35:15;;;;;;;0.43;0.43;;;;;;;15.16;59.16;98504.38;4440280;32;33435;-85
2023/04/02 08:37:43;;;;;;;0.22;0.22;;;;;;;15.28;59.91;98503.84;4439185;32;34858;-85
2023/04/02 08:40:22;;;;;;;0.60;0.60;;;;;;;14.49;62.87;98508.84;4440004;32;35771;-83
2023/04/02 08:43:27;;;;;;;0.80;0.80;;;;;;;14.77;61.65;98518.22;4438765;32;34412;-83
2023/04/02 08:46:26;;;;;;;0.40;0.40;;;;;;;14.94;61.42;98523.63;4439928;32;32928;-83
2023/04/02 08:48:59;;;;;;;0.30;0.30;;;;;;;14.01;64.62;98522.91;4439918;32;33650;-83
2023/04/02 08:51:31;;;;;;;0.95;0.85;;;;;;;14.78;63.60;98525.19;4438708;32;35793;-86
2023/04/02 08:54:02;;;;;;;0.28;0.28;;;;;;;15.54;61.05;98525.47;4438713;32;34452;-85
2023/04/02 08:56:43;;;;;;;0.80;0.80;;;;;;;15.73;58.79;98530.75;4426083;32;32654;-86
2023/04/02 08:59:31;;;;;;;0.30;0.30;;;;;;;15.41;60.52;98537.44;4438777;32;34722;-84
2023/04/02 09:02:04;;;;;;;0.98;0.98;;;;;;;15.86;58.34;98531.91;4438663;32;35789;-83
2023/04/02 09:04:33;;;;;;;0.30;0.30;;;;;;;15.34;59.64;98534.22;4439825;32;34443;-83
2023/04/02 09:07:02;;;;;;;0.40;0.40;;;;;;;15.38;60.03;98532.31;4439684;32;33406;-84
2023/04/02 09:09:35;;;;;;;1.05;1.02;;;;;;;15.62;58.96;98533.84;4437804;32;34780;-83
2023/04/02 09:12:05;;;;;;;0.40;0.40;;;;;;;15.52;59.85;98536.00;4438489;32;35068;-86
2023/04/02 09:14:44;;;;;;;0.95;0.40;;;;;;;15.60;59.28;98538.31;4439729;32;34242;-85
2023/04/02 09:17:23;;;;;;;0.45;0.45;;;;;;;15.33;59.57;98543.81;4438804;32;34332;-83
2023/04/02 09:20:01;;;;;;;0.30;0.30;;;;;;;15.04;61.88;98536.38;4438728;32;33787;-83
2023/04/02 09:22:30;;;;;;;0.40;0.40;;;;;;;15.62;59.83;98539.09;4438523;32;34616;-83
2023/04/02 09:25:01;;;;;;;0.30;0.30;;;;;;;15.65;59.49;98540.72;4425978;32;34553;-83
2023/04/02 09:27:32;;;;;;;0.20;0.20;;;;;;;15.43;59.22;98538.22;4438581;32;33426;-83
2023/04/02 09:30:30;;;;;;;0.43;0.43;;;;;;;15.42;60.51;98546.97;4439537;32;33843;-83
2023/04/02 09:33:01;;;;;;;0.20;0.20;;;;;;;15.64;58.82;98553.00;4430729;32;35815;-84
2023/04/02 09:35:31;;;;;;;0.30;0.30;;;;;;;15.70;59.19;98549.25;4438491;32;34278;-84
2023/04/02 09:38:08;;;;;;;0.40;0.40;;;;;;;16.39;56.92;98551.38;4438544;32;33358;-83
2023/04/02 09:40:42;;;;;;;0.45;0.45;;;;;;;15.44;59.54;98553.00;4438374;32;34297;-83
2023/04/02 09:43:20;;;;;;;0.65;0.65;;;;;;;15.32;59.92;98552.63;4439548;32;35105;-82
2023/04/02 09:46:15;;;;;;;0.40;0.40;;;;;;;15.39;58.90;98549.72;4439597;32;34578;-85
2023/04/02 09:48:59;;;;;;;0.40;0.40;;;;;;;15.16;60.25;98562.06;4438494;32;33163;-84
2023/04/02 09:51:33;;;;;;;0.20;0.20;;;;;;;15.03;60.38;98555.63;4438356;32;33928;-84
2023/04/02 09:54:01;;;;;;;0.30;0.30;;;;;;;15.03;60.70;98555.63;4439425;32;35096;-86
2023/04/02 09:56:31;;;;;;;0.40;0.40;;;;;;;14.94;60.72;98562.94;4439447;32;34326;-84
2023/04/02 09:59:05;;;;;;;1.95;0.82;;;;;;;15.18;58.84;98565.47;4438208;32;34262;-84
2023/04/02 10:01:39;;;;;;;0.20;0.20;;;;;;;14.64;61.27;98556.34;4438556;32;34332;-84
2023/04/02 10:04:43;;;;;;;0.43;0.43;;;;;;;14.87;61.02;98566.72;4439446;32;34983;-85
2023/04/02 10:07:41;;;;;;;1.55;0.90;;;;;;;15.07;60.65;98565.06;4438176;32;34458;-83
2023/04/02 10:10:17;;;;;;;0.30;0.30;;;;;;;15.03;60.98;98561.72;4438256;32;34138;-84
2023/04/02 10:12:50;;;;;;;0.20;0.20;;;;;;;15.16;63.19;98560.28;4425636;32;34070;-84
2023/04/02 10:15:25;;;;;;;0.70;0.70;;;;;;;15.47;60.96;98553.72;4438237;32;34652;-84
2023/04/02 10:18:02;;;;;;;0.55;0.55;;;;;;;15.68;59.43;98554.56;4438081;32;35139;-84
2023/04/02 10:20:33;;;;;;;0.30;0.30;;;;;;;16.09;58.42;98562.41;4439087;32;33466;-85
2023/04/02 10:23:15;;;;;;;0.70;0.70;;;;;;;16.36;58.51;98554.16;4438541;32;34315;-80
2023/04/02 10:26:16;;;;;;;0.32;0.32;;;;;;;17.17;57.11;98549.38;4439362;32;36023;-85
2023/04/02 10:29:03;;;;;;;1.23;1.12;;;;;;;17.35;57.43;98544.97;4432276;32;34378;-87
2023/04/02 10:31:53;;;;;;;0.25;0.25;;;;;;;17.50;53.20;98550.38;4439135;32;34155;-85
2023/04/02 10:34:24;;;;;;;0.25;0.25;;;;;;;18.25;53.92;98550.78;4439308;32;33852;-85
2023/04/02 10:36:56;;;;;;;0.85;0.70;;;;;;;18.24;51.56;98544.69;4439226;32;35121;-85
2023/04/02 10:39:42;;;;;;;0.25;0.25;;;;;;;17.72;52.56;98556.22;4438383;32;34457;-85
2023/04/02 10:42:36;;;;;;;0.73;0.73;;;;;;;17.32;53.52;98558.28;4425504;32;33955;-82
2023/04/02 10:45:27;;;;;;;0.47;0.47;;;;;;;16.26;57.87;98560.75;4425328;32;32604;-86
2023/04/02 10:48:20;;;;;;;0.65;0.62;;;;;;;17.28;54.94;98550.59;4437952;32;35022;-82
2023/04/02 10:51:00;;;;;;;0.30;0.30;;;;;;;18.72;52.12;98553.44;4438999;32;34489;-87
2023/04/02 10:53:53;;;;;;;0.30;0.30;;;;;;;19.87;49.40;98542.31;4437976;32;34028;-87
2023/04/02 10:56:22;;;;;;;0.70;0.70;;;;;;;20.70;47.02;98554.78;4437866;32;34633;-82
2023/04/02 10:59:27;;;;;;;0.35;0.35;;;;;;;21.27;44.54;98551.03;4438030;32;35522;-86
2023/04/02 11:01:56;;;;;;;3.60;0.85;;;;;;;20.93;45.85;98548.84;4438578;32;34039;-83
2023/04/02 11:04:31;;;;;;;0.43;0.43;;;;;;;20.39;45.61;98556.72;4438995;32;33823;-86
2023/04/02 11:07:04;;;;;;;0.50;0.50;;;;;;;19.72;46.42;98552.03;4437766;32;33899;-86
2023/04/02 11:09:43;;;;;;;0.47;0.47;;;;;;;18.99;48.74;98558.09;4437855;32;35031;-85
2023/04/02 11:12:39;;;;;;;0.43;0.43;;;;;;;18.71;49.56;98561.44;4437466;32;34095;-87
2023/04/02 11:15:16;;;;;;;16.35;1.65;;;;;;;18.47;49.84;98563.66;4438786;32;33157;-86
2023/04/02 11:17:45;;;;;;;0.40;0.40;;;;;;;17.32;52.39;98562.69;4437399;32;34349;-87
2023/04/02 11:20:43;;;;;;;0.50;0.50;;;;;;;16.86;53.38;98553.53;4437437;32;34947;-85
2023/04/02 11:23:17;;;;;;;0.47;0.47;;;;;;;16.82;54.14;98551.94;4437477;32;35181;-84
2023/04/02 11:25:46;;;;;;;0.37;0.37;;;;;;;16.37;56.83;98555.00;4437611;32;34224;-82
2023/04/02 11:28:28;;;;;;;0.50;0.50;;;;;;;17.40;55.99;98545.59;4437341;32;33790;-85
2023/04/02 11:30:57;;;;;;;0.52;0.52;;;;;;;17.97;52.55;98544.41;4437386;32;36013;-86
2023/04/02 11:33:34;;;;;;;0.55;0.55;;;;;;;17.40;53.91;98552.59;4440260;32;34297;-86
2023/04/02 11:36:46;;;;;;;0.50;0.50;;;;;;;17.20;54.78;98538.69;4440458;32;33604;-87
2023/04/02 11:39:52;;;;;;;0.65;0.65;;;;;;;16.93;55.53;98546.19;4440534;32;33668;-86
2023/04/02 11:42:23;;;;;;;0.40;0.40;;;;;;;17.02;55.58;98529.09;4439383;32;35006;-86
2023/04/02 11:44:54;;;;;;;0.55;0.55;;;;;;;16.89;55.20;98538.50;4440354;32;34755;-84
2023/04/02 11:47:24;;;;;;;0.55;0.55;;;;;;;18.11;54.89;98539.25;4439196;32;33543;-85
2023/04/02 11:50:00;;;;;;;0.40;0.40;;;;;;;20.38;48.42;98536.50;4439144;32;35307;-86
2023/04/02 11:52:36;;;;;;;0.30;0.30;;;;;;;20.93;45.85;98537.37;4440271;32;35011;-87
2023/04/02 11:55:23;;;;;;;0.40;0.40;;;;;;;21.17;45.15;98530.47;4426588;32;34678;-87
2023/04/02 11:58:01;;;;;;;0.60;0.60;;;;;;;21.31;46.15;98544.59;4439229;32;33422;-85
2023/04/02 12:00:42;;;;;;;0.30;0.30;;;;;;;20.51;45.73;98540.09;4440354;32;34849;-83
2023/04/02 12:03:29;;;;;;;0.43;0.43;;;;;;;20.76;44.40;98543.81;4440304;32;34834;-84
2023/04/02 12:06:09;;;;;;;0.50;0.50;;;;;;;21.19;44.00;98533.00;4440290;32;34654;-84
2023/04/02 12:09:26;;;;;;;0.50;0.50;;;;;;;20.27;44.41;98543.31;4440353;32;33350;-83
2023/04/02 12:11:56;;;;;;;0.40;0.40;;;;;;;20.11;46.38;98529.37;4438596;32;34660;-82
2023/04/02 12:14:36;;;;;;;0.30;0.30;;;;;;;19.84;46.68;98538.09;4440274;32;34765;-86
2023/04/02 12:17:16;;;;;;;0.40;0.40;;;;;;;19.91;47.84;98528.00;4440130;32;34324;-85
2023/04/02 12:19:50;;;;;;;0.40;0.40;;;;;;;20.19;47.26;98537.69;4439080;32;33476;-82
2023/04/02 12:22:24;;;;;;;0.30;0.30;;;;;;;19.54;47.03;98534.66;4439007;32;33844;-86
2023/04/02 12:24:56;;;;;;;0.57;0.57;;;;;;;19.93;48.09;98527.91;4438984;32;34966;-86
2023/04/02 12:27:26;;;;;;;0.47;0.47;;;;;;;19.75;46.75;98527.22;4426237;32;33392;-86